createdAt,value
2019-03-30T00:01:49.692Z,6.70
2019-03-30T00:04:20.026Z,6.70
2019-03-30T00:06:50.435Z,6.70
2019-03-30T00:09:21.066Z,6.60
2019-03-30T00:11:51.714Z,6.50
2019-03-30T00:14:22.182Z,6.60
2019-03-30T00:16:54.130Z,6.50
2019-03-30T00:19:34.729Z,6.50
2019-03-30T00:21:59.121Z,6.50
2019-03-30T00:24:32.559Z,6.50
2019-03-30T00:27:05.105Z,6.50
2019-03-30T00:29:37.543Z,6.40
2019-03-30T00:32:08.028Z,6.30
2019-03-30T00:34:40.616Z,6.50
2019-03-30T00:37:16.163Z,6.40
2019-03-30T00:39:47.141Z,6.40
2019-03-30T00:42:17.522Z,6.40
2019-03-30T00:44:51.150Z,6.30
2019-03-30T00:47:21.754Z,6.40
2019-03-30T00:49:52.134Z,6.30
2019-03-30T00:52:22.530Z,6.30
2019-03-30T00:54:52.947Z,6.30
2019-03-30T00:57:23.419Z,6.30
2019-03-30T00:59:54.056Z,6.20
2019-03-30T01:02:24.879Z,6.10
2019-03-30T01:04:55.606Z,6.10
2019-03-30T01:07:25.907Z,6.20
2019-03-30T01:10:00.143Z,6.20
2019-03-30T01:12:31.934Z,6.20
2019-03-30T01:15:06.214Z,6.20
2019-03-30T01:17:36.551Z,6.10
2019-03-30T01:20:08.200Z,6.20
2019-03-30T01:22:40.163Z,6.20
2019-03-30T01:25:10.895Z,6.20
2019-03-30T01:27:41.662Z,6.30
2019-03-30T01:30:22.598Z,6.30
2019-03-30T01:32:44.583Z,6.20
2019-03-30T01:35:15.354Z,6.20
2019-03-30T01:37:46.507Z,6.20
2019-03-30T01:40:17.224Z,6.10
2019-03-30T01:42:47.582Z,6.20
2019-03-30T01:45:17.985Z,6.10
2019-03-30T01:47:48.700Z,6.20
2019-03-30T01:50:19.551Z,6.20
2019-03-30T01:52:53.115Z,6.20
2019-03-30T01:55:24.190Z,6.30
2019-03-30T01:57:55.151Z,6.30
2019-03-30T02:00:25.559Z,6.40
2019-03-30T02:02:58.033Z,6.20
2019-03-30T02:05:32.324Z,6.30
2019-03-30T02:08:02.950Z,6.30
2019-03-30T02:10:46.058Z,6.30
2019-03-30T02:13:16.884Z,6.30
2019-03-30T02:15:47.556Z,6.20
2019-03-30T02:18:17.916Z,6.20
2019-03-30T02:20:48.965Z,6.10
2019-03-30T02:23:19.598Z,6.10
2019-03-30T02:25:50.063Z,6.00
2019-03-30T02:28:20.471Z,6.10
2019-03-30T02:30:50.879Z,6.20
2019-03-30T02:33:21.235Z,6.20
2019-03-30T02:35:51.547Z,6.20
2019-03-30T02:38:22.464Z,6.10
2019-03-30T02:40:52.772Z,6.10
2019-03-30T02:43:23.191Z,6.10
2019-03-30T02:45:53.595Z,6.00
2019-03-30T02:48:24.054Z,6.00
2019-03-30T02:50:54.470Z,6.00
2019-03-30T02:53:24.847Z,6.00
2019-03-30T02:55:55.248Z,5.90
2019-03-30T02:58:25.628Z,5.80
2019-03-30T03:00:56.613Z,5.90
2019-03-30T03:03:27.714Z,5.90
2019-03-30T03:05:58.599Z,5.80
2019-03-30T03:08:29.255Z,5.70
2019-03-30T03:10:59.953Z,5.80
2019-03-30T03:13:30.851Z,5.70
2019-03-30T03:16:01.243Z,5.80
2019-03-30T03:18:31.983Z,5.70
2019-03-30T03:21:07.979Z,5.70
2019-03-30T03:23:34.501Z,5.60
2019-03-30T03:26:05.310Z,5.70
2019-03-30T03:28:35.702Z,5.70
2019-03-30T03:31:06.372Z,5.70
2019-03-30T03:33:37.140Z,5.70
2019-03-30T03:36:07.806Z,5.70
2019-03-30T03:38:39.031Z,5.60
2019-03-30T03:41:12.936Z,5.50
2019-03-30T03:43:43.931Z,5.50
2019-03-30T03:46:15.641Z,5.50
2019-03-30T03:48:46.785Z,5.40
2019-03-30T03:51:26.209Z,5.40
2019-03-30T03:53:51.880Z,5.30
2019-03-30T03:56:24.164Z,5.30
2019-03-30T03:58:57.379Z,5.20
2019-03-30T04:01:30.760Z,5.30
2019-03-30T04:04:03.603Z,5.20
2019-03-30T04:06:34.562Z,5.20
2019-03-30T04:09:06.947Z,5.20
2019-03-30T04:11:40.823Z,5.30
2019-03-30T04:14:13.913Z,5.20
2019-03-30T04:16:44.339Z,5.20
2019-03-30T04:19:14.840Z,5.10
2019-03-30T04:21:45.330Z,5.10
2019-03-30T04:24:16.102Z,5.10
2019-03-30T04:26:46.530Z,5.10
2019-03-30T04:29:22.800Z,5.00
2019-03-30T04:31:53.219Z,5.00
2019-03-30T04:34:23.982Z,5.10
2019-03-30T04:36:54.483Z,5.10
2019-03-30T04:39:24.963Z,5.10
2019-03-30T04:41:55.400Z,5.10
2019-03-30T04:44:25.736Z,5.10
2019-03-30T04:46:56.127Z,5.20
2019-03-30T04:49:26.561Z,5.30
2019-03-30T04:51:58.114Z,5.40
2019-03-30T04:54:28.773Z,5.40
2019-03-30T04:56:59.176Z,5.30
2019-03-30T04:59:29.646Z,5.30
2019-03-30T05:02:00.067Z,5.20
2019-03-30T05:04:30.512Z,5.20
2019-03-30T05:07:01.159Z,5.20
2019-03-30T05:09:31.895Z,5.20
2019-03-30T05:12:02.833Z,5.10
2019-03-30T05:14:34.125Z,5.10
2019-03-30T05:17:04.558Z,5.00
2019-03-30T05:19:34.955Z,5.10
2019-03-30T05:22:12.205Z,5.10
2019-03-30T05:24:37.446Z,5.20
2019-03-30T05:27:07.939Z,5.30
2019-03-30T05:29:40.359Z,5.30
2019-03-30T05:32:16.832Z,5.20
2019-03-30T05:34:47.514Z,5.20
2019-03-30T05:37:18.216Z,5.20
2019-03-30T05:39:48.863Z,5.30
2019-03-30T05:42:19.824Z,5.30
2019-03-30T05:44:50.202Z,5.30
2019-03-30T05:47:20.881Z,5.30
2019-03-30T05:49:51.279Z,5.30
2019-03-30T05:52:26.616Z,5.40
2019-03-30T05:54:53.811Z,5.40
2019-03-30T05:57:24.241Z,5.40
2019-03-30T05:59:56.066Z,5.40
2019-03-30T06:02:26.823Z,5.30
2019-03-30T06:04:58.723Z,5.40
2019-03-30T06:07:29.431Z,5.30
2019-03-30T06:09:59.830Z,5.40
2019-03-30T06:12:30.256Z,5.40
2019-03-30T06:15:00.662Z,5.50
2019-03-30T06:17:31.008Z,5.50
2019-03-30T06:20:01.408Z,5.70
2019-03-30T06:22:40.152Z,5.80
2019-03-30T06:25:04.364Z,5.80
2019-03-30T06:27:35.082Z,5.80
2019-03-30T06:30:22.914Z,5.90
2019-03-30T06:32:53.602Z,5.90
2019-03-30T06:35:24.032Z,5.90
2019-03-30T06:37:54.441Z,6.00
2019-03-30T06:40:24.903Z,6.00
2019-03-30T06:42:55.327Z,6.20
2019-03-30T06:45:25.981Z,6.20
2019-03-30T06:47:56.665Z,6.30
2019-03-30T06:50:27.398Z,6.40
2019-03-30T06:52:58.838Z,6.50
2019-03-30T06:55:29.785Z,6.60
2019-03-30T06:58:00.384Z,6.70
2019-03-30T07:00:37.107Z,6.80
2019-03-30T07:03:08.466Z,7.00
2019-03-30T07:05:42.941Z,7.30
2019-03-30T07:08:14.877Z,7.90
2019-03-30T07:10:48.467Z,8.60
2019-03-30T07:13:19.442Z,9.00
2019-03-30T07:15:50.763Z,9.20
2019-03-30T07:18:21.265Z,9.60
2019-03-30T07:20:51.931Z,10.20
2019-03-30T07:23:22.418Z,11.10
2019-03-30T07:25:53.161Z,12.30
2019-03-30T07:28:23.607Z,13.30
2019-03-30T07:30:54.253Z,13.40
2019-03-30T07:33:25.022Z,13.40
2019-03-30T07:35:55.730Z,12.80
2019-03-30T07:38:26.203Z,11.90
2019-03-30T07:40:56.663Z,11.00
2019-03-30T07:43:27.142Z,10.60
2019-03-30T07:45:57.830Z,10.70
2019-03-30T07:48:28.609Z,12.60
2019-03-30T07:50:59.554Z,15.20
2019-03-30T07:53:43.570Z,16.80
2019-03-30T07:56:08.668Z,16.50
2019-03-30T07:58:35.197Z,17.00
2019-03-30T08:01:06.046Z,16.40
2019-03-30T08:03:36.801Z,16.20
2019-03-30T08:06:07.523Z,17.10
2019-03-30T08:08:38.215Z,17.60
2019-03-30T08:11:08.890Z,18.20
2019-03-30T08:13:39.894Z,19.70
2019-03-30T08:16:10.583Z,21.30
2019-03-30T08:18:41.622Z,20.80
2019-03-30T08:21:12.006Z,20.30
2019-03-30T08:23:43.403Z,20.40
2019-03-30T08:26:14.373Z,21.70
2019-03-30T08:28:45.079Z,22.70
2019-03-30T08:31:15.474Z,23.90
2019-03-30T08:33:46.533Z,24.50
2019-03-30T08:36:17.579Z,24.30
2019-03-30T08:38:48.735Z,23.50
2019-03-30T08:41:19.636Z,22.20
2019-03-30T08:43:51.088Z,21.90
2019-03-30T08:46:22.102Z,22.20
2019-03-30T08:48:52.714Z,22.80
2019-03-30T08:51:23.132Z,23.00
2019-03-30T08:53:55.041Z,23.50
2019-03-30T08:56:28.030Z,23.30
2019-03-30T08:58:58.637Z,24.00
2019-03-30T09:01:29.004Z,24.20
2019-03-30T09:04:04.644Z,25.20
2019-03-30T09:06:35.221Z,24.70
2019-03-30T09:09:07.523Z,26.10
2019-03-30T09:11:38.534Z,26.40
2019-03-30T09:14:08.941Z,27.00
2019-03-30T09:16:40.094Z,27.20
2019-03-30T09:19:10.557Z,28.00
2019-03-30T09:21:40.990Z,27.70
2019-03-30T09:24:11.432Z,28.00
2019-03-30T09:26:41.846Z,27.50
2019-03-30T09:29:12.504Z,28.80
2019-03-30T09:31:42.950Z,29.00
2019-03-30T09:34:13.342Z,29.10
2019-03-30T09:36:43.800Z,28.80
2019-03-30T09:39:14.562Z,29.50
2019-03-30T09:41:44.991Z,30.10
2019-03-30T09:44:15.926Z,29.90
2019-03-30T09:46:46.439Z,29.30
2019-03-30T09:49:16.835Z,29.80
2019-03-30T09:51:47.252Z,29.50
2019-03-30T09:54:23.547Z,28.70
2019-03-30T09:56:49.775Z,29.70
2019-03-30T09:59:20.577Z,29.50
2019-03-30T10:01:51.646Z,29.10
2019-03-30T10:04:23.218Z,29.40
2019-03-30T10:06:53.907Z,28.90
2019-03-30T10:09:24.859Z,28.50
2019-03-30T10:11:55.506Z,28.50
2019-03-30T10:14:26.522Z,28.20
2019-03-30T10:16:57.150Z,27.70
2019-03-30T10:19:27.964Z,27.80
2019-03-30T10:21:58.752Z,27.50
2019-03-30T10:24:38.004Z,27.90
2019-03-30T10:27:01.278Z,28.00
2019-03-30T10:29:32.414Z,28.00
2019-03-30T10:32:03.163Z,27.80
2019-03-30T10:34:33.627Z,28.30
2019-03-30T10:37:04.050Z,28.80
2019-03-30T10:39:34.462Z,28.90
2019-03-30T10:42:05.154Z,29.10
2019-03-30T10:44:35.588Z,28.60
2019-03-30T10:47:06.118Z,28.20
2019-03-30T10:49:36.590Z,28.50
2019-03-30T10:52:07.032Z,28.90
2019-03-30T10:54:51.640Z,28.90
2019-03-30T10:57:09.751Z,28.90
2019-03-30T10:59:40.392Z,28.50
2019-03-30T11:02:10.990Z,28.70
2019-03-30T11:04:41.433Z,28.20
2019-03-30T11:07:12.547Z,27.90
2019-03-30T11:09:43.274Z,27.20
2019-03-30T11:12:13.973Z,26.70
2019-03-30T11:14:45.129Z,26.10
2019-03-30T11:17:19.112Z,25.60
2019-03-30T11:19:47.779Z,26.00
2019-03-30T11:22:18.587Z,26.10
2019-03-30T11:24:48.974Z,26.70
2019-03-30T11:27:19.329Z,26.20
2019-03-30T11:29:49.866Z,25.90
2019-03-30T11:32:20.314Z,25.80
2019-03-30T11:34:51.059Z,26.50
2019-03-30T11:37:22.057Z,26.70
2019-03-30T11:39:52.755Z,27.20
2019-03-30T11:42:23.498Z,27.60
2019-03-30T11:44:54.680Z,27.40
2019-03-30T11:47:25.396Z,27.70
2019-03-30T11:49:56.031Z,27.60
2019-03-30T11:52:27.003Z,27.40
2019-03-30T11:54:57.780Z,27.20
2019-03-30T11:57:33.186Z,27.30
2019-03-30T12:00:10.671Z,26.70
2019-03-30T12:02:41.426Z,26.00
2019-03-30T12:05:13.370Z,26.50
2019-03-30T12:07:44.170Z,26.80
2019-03-30T12:10:14.972Z,26.80
2019-03-30T12:12:45.632Z,26.80
2019-03-30T12:15:16.810Z,26.40
2019-03-30T12:17:47.809Z,26.40
2019-03-30T12:20:18.561Z,26.30
2019-03-30T12:22:49.005Z,26.40
2019-03-30T12:25:19.457Z,26.90
2019-03-30T12:27:50.500Z,26.80
2019-03-30T12:30:21.271Z,26.80
2019-03-30T12:32:52.968Z,26.80
2019-03-30T12:35:23.490Z,26.50
2019-03-30T12:37:54.023Z,26.50
2019-03-30T12:40:24.519Z,26.10
2019-03-30T12:42:54.954Z,26.10
2019-03-30T12:45:25.459Z,26.40
2019-03-30T12:47:56.232Z,26.40
2019-03-30T12:50:26.695Z,26.30
2019-03-30T12:52:57.135Z,26.10
2019-03-30T12:55:27.587Z,26.10
2019-03-30T12:57:58.580Z,26.10
2019-03-30T13:00:30.407Z,26.30
2019-03-30T13:03:00.940Z,26.80
2019-03-30T13:05:31.391Z,26.80
2019-03-30T13:08:01.962Z,26.30
2019-03-30T13:10:32.384Z,25.30
2019-03-30T13:13:02.904Z,25.00
2019-03-30T13:15:33.447Z,24.90
2019-03-30T13:18:04.272Z,24.80
2019-03-30T13:20:34.856Z,25.00
2019-03-30T13:23:05.417Z,25.40
2019-03-30T13:25:36.053Z,24.40
2019-03-30T13:28:06.566Z,24.20
2019-03-30T13:30:37.667Z,24.50
2019-03-30T13:33:08.636Z,24.50
2019-03-30T13:35:39.443Z,24.10
2019-03-30T13:38:12.625Z,23.60
2019-03-30T13:40:42.286Z,23.50
2019-03-30T13:43:13.035Z,23.20
2019-03-30T13:45:44.431Z,22.90
2019-03-30T13:48:15.223Z,22.10
2019-03-30T13:50:46.083Z,22.00
2019-03-30T13:53:17.550Z,21.80
2019-03-30T13:55:47.976Z,21.70
2019-03-30T13:58:18.414Z,21.90
2019-03-30T14:00:48.883Z,21.60
2019-03-30T14:03:19.707Z,21.60
2019-03-30T14:05:50.151Z,21.60
2019-03-30T14:08:20.732Z,21.40
2019-03-30T14:10:51.250Z,21.40
2019-03-30T14:13:22.070Z,21.40
2019-03-30T14:15:53.290Z,21.40
2019-03-30T14:18:23.806Z,21.20
2019-03-30T14:20:54.252Z,21.00
2019-03-30T14:23:25.068Z,20.80
2019-03-30T14:25:55.509Z,20.80
2019-03-30T14:28:26.062Z,20.80
2019-03-30T14:30:56.471Z,20.80
2019-03-30T14:33:26.979Z,20.70
2019-03-30T14:35:57.394Z,20.50
2019-03-30T14:38:27.823Z,20.40
2019-03-30T14:40:58.295Z,20.20
2019-03-30T14:43:28.792Z,20.20
2019-03-30T14:45:59.284Z,20.20
2019-03-30T14:48:29.740Z,20.20
2019-03-30T14:51:00.189Z,20.20
2019-03-30T14:53:30.699Z,20.30
2019-03-30T14:56:01.145Z,20.30
2019-03-30T14:58:31.625Z,20.40
2019-03-30T15:01:03.300Z,20.50
2019-03-30T15:03:34.363Z,20.50
2019-03-30T15:06:07.041Z,20.40
2019-03-30T15:08:37.868Z,20.20
2019-03-30T15:11:08.870Z,20.20
2019-03-30T15:13:39.636Z,20.10
2019-03-30T15:16:10.359Z,20.10
2019-03-30T15:18:41.085Z,20.10
2019-03-30T15:21:18.994Z,20.00
2019-03-30T15:23:49.936Z,20.00
2019-03-30T15:26:22.225Z,19.90
2019-03-30T15:28:52.837Z,20.00
2019-03-30T15:31:23.507Z,19.90
2019-03-30T15:33:54.582Z,19.90
2019-03-30T15:36:25.055Z,19.90
2019-03-30T15:38:55.568Z,19.90
2019-03-30T15:41:26.287Z,19.90
2019-03-30T15:43:56.882Z,19.80
2019-03-30T15:46:27.450Z,19.80
2019-03-30T15:48:57.879Z,19.80
2019-03-30T15:51:28.468Z,19.80
2019-03-30T15:53:58.992Z,19.80
2019-03-30T15:56:29.677Z,19.60
2019-03-30T15:59:00.221Z,19.60
2019-03-30T16:01:31.322Z,19.60
2019-03-30T16:04:02.596Z,19.60
2019-03-30T16:06:33.514Z,19.60
2019-03-30T16:09:05.599Z,19.50
2019-03-30T16:11:36.121Z,19.50
2019-03-30T16:14:06.911Z,19.50
2019-03-30T16:16:37.447Z,19.40
2019-03-30T16:19:07.966Z,19.30
2019-03-30T16:21:38.549Z,19.30
2019-03-30T16:24:09.922Z,19.20
2019-03-30T16:26:42.453Z,19.20
2019-03-30T16:29:13.721Z,19.20
2019-03-30T16:31:44.201Z,19.20
2019-03-30T16:34:15.303Z,19.10
2019-03-30T16:36:45.975Z,19.00
2019-03-30T16:39:16.720Z,19.00
2019-03-30T16:41:47.488Z,19.00
2019-03-30T16:44:18.035Z,18.90
2019-03-30T16:46:48.516Z,18.70
2019-03-30T16:49:19.616Z,18.70
2019-03-30T16:51:50.467Z,18.70
2019-03-30T16:54:21.783Z,18.70
2019-03-30T16:56:52.947Z,18.70
2019-03-30T16:59:23.555Z,18.60
2019-03-30T17:01:54.674Z,18.60
2019-03-30T17:04:25.236Z,18.50
2019-03-30T17:06:56.987Z,18.50
2019-03-30T17:09:28.066Z,18.40
2019-03-30T17:11:58.824Z,18.30
2019-03-30T17:14:29.287Z,18.20
2019-03-30T17:16:59.735Z,18.10
2019-03-30T17:19:30.752Z,18.00
2019-03-30T17:22:02.451Z,18.00
2019-03-30T17:24:33.460Z,17.90
2019-03-30T17:27:04.786Z,17.80
2019-03-30T17:29:35.646Z,17.60
2019-03-30T17:32:06.205Z,17.40
2019-03-30T17:34:37.736Z,17.20
2019-03-30T17:37:10.089Z,17.00
2019-03-30T17:39:41.081Z,16.90
2019-03-30T17:42:11.595Z,16.70
2019-03-30T17:44:42.307Z,16.50
2019-03-30T17:47:14.465Z,16.30
2019-03-30T17:49:45.398Z,16.10
2019-03-30T17:52:15.834Z,15.90
2019-03-30T17:54:46.277Z,15.80
2019-03-30T17:57:17.664Z,15.60
2019-03-30T17:59:48.192Z,15.40
2019-03-30T18:02:19.200Z,15.60
2019-03-30T18:04:50.038Z,15.60
2019-03-30T18:07:21.128Z,15.50
2019-03-30T18:09:51.932Z,15.50
2019-03-30T18:12:22.785Z,15.30
2019-03-30T18:14:53.584Z,15.30
2019-03-30T18:17:24.596Z,15.10
2019-03-30T18:19:55.340Z,14.90
2019-03-30T18:22:26.111Z,14.70
2019-03-30T18:24:56.934Z,14.60
2019-03-30T18:27:27.734Z,14.40
2019-03-30T18:29:58.710Z,14.30
2019-03-30T18:32:29.752Z,14.20
2019-03-30T18:35:00.401Z,14.00
2019-03-30T18:37:32.682Z,13.90
2019-03-30T18:40:03.368Z,13.80
2019-03-30T18:42:33.886Z,13.60
2019-03-30T18:45:05.573Z,13.40
2019-03-30T18:47:36.038Z,13.20
2019-03-30T18:50:06.849Z,13.10
2019-03-30T18:52:38.174Z,13.00
2019-03-30T18:55:09.267Z,12.90
2019-03-30T18:57:39.995Z,12.80
2019-03-30T19:00:12.059Z,12.70
2019-03-30T19:02:42.552Z,12.60
2019-03-30T19:05:13.318Z,12.60
2019-03-30T19:07:44.136Z,12.60
2019-03-30T19:10:15.201Z,12.60
2019-03-30T19:12:45.980Z,12.50
2019-03-30T19:15:16.517Z,12.40
2019-03-30T19:17:47.230Z,12.30
2019-03-30T19:20:17.649Z,12.20
2019-03-30T19:22:48.319Z,12.10
2019-03-30T19:25:18.976Z,12.00
2019-03-30T19:27:49.680Z,11.90
2019-03-30T19:30:20.916Z,11.80
2019-03-30T19:32:51.664Z,11.70
2019-03-30T19:35:22.587Z,11.70
2019-03-30T19:37:53.310Z,11.60
2019-03-30T19:40:23.996Z,11.60
2019-03-30T19:42:54.684Z,11.40
2019-03-30T19:45:25.844Z,11.40
2019-03-30T19:47:56.353Z,11.40
2019-03-30T19:50:27.055Z,11.50
2019-03-30T19:52:57.829Z,11.40
2019-03-30T19:55:28.265Z,11.30
2019-03-30T19:57:58.701Z,11.30
2019-03-30T20:00:29.158Z,11.20
2019-03-30T20:03:03.576Z,11.20
2019-03-30T20:05:34.688Z,11.10
2019-03-30T20:08:12.037Z,11.00
2019-03-30T20:10:37.524Z,11.00
2019-03-30T20:13:09.278Z,10.90
2019-03-30T20:15:40.004Z,10.80
2019-03-30T20:18:10.799Z,10.80
2019-03-30T20:20:41.248Z,10.70
2019-03-30T20:23:14.335Z,10.70
2019-03-30T20:25:45.339Z,10.50
2019-03-30T20:28:16.367Z,10.40
2019-03-30T20:30:47.582Z,10.40
2019-03-30T20:33:18.543Z,10.30
2019-03-30T20:35:49.410Z,10.30
2019-03-30T20:38:20.151Z,10.20
2019-03-30T20:40:50.790Z,10.20
2019-03-30T20:43:21.506Z,10.10
2019-03-30T20:45:52.070Z,10.10
2019-03-30T20:48:22.661Z,10.10
2019-03-30T20:50:53.209Z,10.10
2019-03-30T20:53:23.713Z,10.10
2019-03-30T20:55:54.404Z,10.00
2019-03-30T20:58:25.168Z,9.90
2019-03-30T21:00:55.795Z,9.90
2019-03-30T21:03:26.423Z,9.90
2019-03-30T21:05:56.885Z,9.80
2019-03-30T21:08:27.370Z,9.90
2019-03-30T21:10:58.216Z,9.80
2019-03-30T21:13:28.779Z,9.80
2019-03-30T21:15:59.327Z,9.70
2019-03-30T21:18:29.862Z,9.70
2019-03-30T21:21:00.759Z,9.60
2019-03-30T21:23:31.271Z,9.70
2019-03-30T21:26:02.190Z,9.60
2019-03-30T21:28:32.712Z,9.60
2019-03-30T21:31:04.438Z,9.60
2019-03-30T21:33:35.926Z,9.60
2019-03-30T21:36:06.654Z,9.50
2019-03-30T21:38:39.477Z,9.40
2019-03-30T21:41:10.022Z,9.40
2019-03-30T21:43:40.443Z,9.30
2019-03-30T21:46:10.981Z,9.20
2019-03-30T21:48:41.888Z,9.30
2019-03-30T21:51:12.582Z,9.20
2019-03-30T21:53:43.424Z,9.20
2019-03-30T21:56:13.917Z,9.10
2019-03-30T21:58:44.418Z,9.00
2019-03-30T22:01:15.156Z,8.90
2019-03-30T22:03:46.875Z,8.90
2019-03-30T22:06:18.124Z,9.00
2019-03-30T22:08:50.239Z,8.90
2019-03-30T22:11:21.076Z,8.80
2019-03-30T22:13:52.191Z,8.80
2019-03-30T22:16:23.006Z,8.70
2019-03-30T22:18:53.592Z,8.60
2019-03-30T22:21:24.759Z,8.60
2019-03-30T22:23:55.810Z,8.60
2019-03-30T22:26:26.904Z,8.60
2019-03-30T22:28:58.036Z,8.60
2019-03-30T22:31:28.643Z,8.60
2019-03-30T22:33:59.295Z,8.60
2019-03-30T22:36:29.775Z,8.60
2019-03-30T22:39:01.473Z,8.50
2019-03-30T22:41:32.563Z,8.50
2019-03-30T22:44:03.636Z,8.50
2019-03-30T22:46:34.563Z,8.50
2019-03-30T22:49:06.237Z,8.40
2019-03-30T22:51:37.048Z,8.30
2019-03-30T22:54:07.538Z,8.30
2019-03-30T22:56:38.584Z,8.20
2019-03-30T22:59:10.241Z,8.20
2019-03-30T23:01:41.053Z,8.10
2019-03-30T23:04:15.472Z,8.00
2019-03-30T23:06:46.227Z,7.90
2019-03-30T23:09:16.934Z,8.00
2019-03-30T23:11:47.941Z,8.00
2019-03-30T23:14:18.322Z,8.10
2019-03-30T23:16:49.212Z,8.10
2019-03-30T23:19:19.955Z,8.00
2019-03-30T23:21:50.381Z,8.00
2019-03-30T23:24:20.767Z,8.00
2019-03-30T23:26:51.195Z,8.10
2019-03-30T23:29:21.571Z,8.10
2019-03-30T23:31:51.982Z,8.10
2019-03-30T23:34:22.610Z,8.00
2019-03-30T23:36:53.279Z,8.00
2019-03-30T23:39:23.702Z,8.00
2019-03-30T23:41:54.528Z,7.90
2019-03-30T23:44:25.248Z,7.90
2019-03-30T23:46:55.662Z,7.80
2019-03-30T23:49:26.128Z,7.80
2019-03-30T23:51:56.514Z,7.80
2019-03-30T23:54:26.902Z,7.80
2019-03-30T23:56:58.358Z,7.90
2019-03-30T23:59:28.725Z,7.90
